sensor_id;sensor_type;location;lat;lon;timestamp;P1;durP1;ratioP1;P2;durP2;ratioP2
40595;SDS011;26304;48.794;9.820;2022-09-01T00:01:39;11.60;;;10.60;;
40595;SDS011;26304;48.794;9.820;2022-09-01T00:07:23;12.65;;;11.55;;
40595;SDS011;26304;48.794;9.820;2022-09-01T00:13:08;11.85;;;10.70;;
40595;SDS011;26304;48.794;9.820;2022-09-01T00:18:50;12.32;;;11.30;;
40595;SDS011;26304;48.794;9.820;2022-09-01T00:24:34;12.52;;;11.43;;
40595;SDS011;26304;48.794;9.820;2022-09-01T00:30:19;13.15;;;11.95;;
40595;SDS011;26304;48.794;9.820;2022-09-01T00:36:03;11.68;;;10.75;;
40595;SDS011;26304;48.794;9.820;2022-09-01T00:41:46;13.10;;;11.82;;
40595;SDS011;26304;48.794;9.820;2022-09-01T00:47:31;12.43;;;11.43;;
40595;SDS011;26304;48.794;9.820;2022-09-01T00:53:15;12.32;;;11.23;;
40595;SDS011;26304;48.794;9.820;2022-09-01T00:58:58;13.38;;;12.07;;
40595;SDS011;26304;48.794;9.820;2022-09-01T01:04:43;13.02;;;11.93;;
40595;SDS011;26304;48.794;9.820;2022-09-01T01:10:26;11.77;;;10.77;;
40595;SDS011;26304;48.794;9.820;2022-09-01T01:16:15;12.63;;;11.52;;
40595;SDS011;26304;48.794;9.820;2022-09-01T01:22:00;12.18;;;11.02;;
40595;SDS011;26304;48.794;9.820;2022-09-01T01:28:10;12.50;;;11.40;;
40595;SDS011;26304;48.794;9.820;2022-09-01T01:33:56;13.30;;;12.20;;
40595;SDS011;26304;48.794;9.820;2022-09-01T01:39:39;12.82;;;11.82;;
40595;SDS011;26304;48.794;9.820;2022-09-01T01:45:25;14.43;;;13.13;;
40595;SDS011;26304;48.794;9.820;2022-09-01T01:51:08;14.23;;;13.02;;
40595;SDS011;26304;48.794;9.820;2022-09-01T01:56:51;15.18;;;13.85;;
40595;SDS011;26304;48.794;9.820;2022-09-01T02:02:36;14.80;;;13.27;;
40595;SDS011;26304;48.794;9.820;2022-09-01T02:08:20;15.50;;;14.10;;
40595;SDS011;26304;48.794;9.820;2022-09-01T02:14:07;17.02;;;15.45;;
40595;SDS011;26304;48.794;9.820;2022-09-01T02:19:51;15.10;;;13.80;;
40595;SDS011;26304;48.794;9.820;2022-09-01T02:25:37;16.00;;;14.55;;
40595;SDS011;26304;48.794;9.820;2022-09-01T02:31:24;15.55;;;14.15;;
40595;SDS011;26304;48.794;9.820;2022-09-01T02:37:09;16.90;;;15.35;;
40595;SDS011;26304;48.794;9.820;2022-09-01T02:42:51;15.48;;;14.13;;
40595;SDS011;26304;48.794;9.820;2022-09-01T02:48:36;16.35;;;14.80;;
40595;SDS011;26304;48.794;9.820;2022-09-01T02:54:22;16.20;;;14.55;;
40595;SDS011;26304;48.794;9.820;2022-09-01T03:00:08;19.05;;;17.27;;
40595;SDS011;26304;48.794;9.820;2022-09-01T03:06:00;18.17;;;16.50;;
40595;SDS011;26304;48.794;9.820;2022-09-01T03:11:46;17.42;;;15.95;;
40595;SDS011;26304;48.794;9.820;2022-09-01T03:17:30;17.52;;;15.95;;
40595;SDS011;26304;48.794;9.820;2022-09-01T03:23:13;18.00;;;16.27;;
40595;SDS011;26304;48.794;9.820;2022-09-01T03:28:59;17.10;;;15.60;;
40595;SDS011;26304;48.794;9.820;2022-09-01T03:34:42;18.33;;;16.52;;
40595;SDS011;26304;48.794;9.820;2022-09-01T03:40:24;17.83;;;16.23;;
40595;SDS011;26304;48.794;9.820;2022-09-01T03:46:11;18.27;;;16.58;;
40595;SDS011;26304;48.794;9.820;2022-09-01T03:51:59;20.77;;;18.88;;
40595;SDS011;26304;48.794;9.820;2022-09-01T03:57:42;19.38;;;17.58;;
40595;SDS011;26304;48.794;9.820;2022-09-01T04:03:30;20.35;;;18.48;;
40595;SDS011;26304;48.794;9.820;2022-09-01T04:09:14;18.55;;;16.85;;
40595;SDS011;26304;48.794;9.820;2022-09-01T04:14:56;18.50;;;16.80;;
40595;SDS011;26304;48.794;9.820;2022-09-01T04:20:42;19.88;;;18.08;;
40595;SDS011;26304;48.794;9.820;2022-09-01T04:26:29;19.40;;;17.60;;
40595;SDS011;26304;48.794;9.820;2022-09-01T04:32:12;18.67;;;16.95;;
40595;SDS011;26304;48.794;9.820;2022-09-01T04:37:56;18.52;;;16.77;;
40595;SDS011;26304;48.794;9.820;2022-09-01T04:43:39;18.08;;;16.27;;
40595;SDS011;26304;48.794;9.820;2022-09-01T04:49:21;17.80;;;16.10;;
40595;SDS011;26304;48.794;9.820;2022-09-01T04:55:08;16.00;;;14.45;;
40595;SDS011;26304;48.794;9.820;2022-09-01T05:00:57;14.52;;;13.20;;
40595;SDS011;26304;48.794;9.820;2022-09-01T05:06:40;14.50;;;13.23;;
40595;SDS011;26304;48.794;9.820;2022-09-01T05:12:25;14.25;;;12.85;;
40595;SDS011;26304;48.794;9.820;2022-09-01T05:18:09;13.45;;;12.25;;
40595;SDS011;26304;48.794;9.820;2022-09-01T05:23:52;14.02;;;12.70;;
40595;SDS011;26304;48.794;9.820;2022-09-01T05:29:37;14.70;;;13.43;;
40595;SDS011;26304;48.794;9.820;2022-09-01T05:35:21;14.65;;;13.25;;
40595;SDS011;26304;48.794;9.820;2022-09-01T05:41:06;13.98;;;12.68;;
40595;SDS011;26304;48.794;9.820;2022-09-01T05:46:52;14.63;;;13.15;;
40595;SDS011;26304;48.794;9.820;2022-09-01T05:52:36;14.47;;;13.17;;
40595;SDS011;26304;48.794;9.820;2022-09-01T05:58:20;11.50;;;10.40;;
40595;SDS011;26304;48.794;9.820;2022-09-01T06:04:04;11.02;;;10.07;;
40595;SDS011;26304;48.794;9.820;2022-09-01T06:09:47;10.80;;;9.85;;
40595;SDS011;26304;48.794;9.820;2022-09-01T06:15:30;10.73;;;9.80;;
40595;SDS011;26304;48.794;9.820;2022-09-01T06:21:14;10.00;;;9.10;;
40595;SDS011;26304;48.794;9.820;2022-09-01T06:26:56;10.05;;;9.15;;
40595;SDS011;26304;48.794;9.820;2022-09-01T06:32:39;10.70;;;9.77;;
40595;SDS011;26304;48.794;9.820;2022-09-01T06:38:25;9.98;;;8.38;;
40595;SDS011;26304;48.794;9.820;2022-09-01T06:44:07;9.95;;;8.93;;
40595;SDS011;26304;48.794;9.820;2022-09-01T06:49:51;8.43;;;7.72;;
40595;SDS011;26304;48.794;9.820;2022-09-01T06:55:40;9.13;;;8.38;;
40595;SDS011;26304;48.794;9.820;2022-09-01T07:01:23;8.75;;;7.95;;
40595;SDS011;26304;48.794;9.820;2022-09-01T07:07:07;8.13;;;7.43;;
40595;SDS011;26304;48.794;9.820;2022-09-01T07:12:53;9.13;;;8.32;;
40595;SDS011;26304;48.794;9.820;2022-09-01T07:18:41;8.55;;;7.85;;
40595;SDS011;26304;48.794;9.820;2022-09-01T07:24:23;16.75;;;8.75;;
40595;SDS011;26304;48.794;9.820;2022-09-01T07:30:08;23.08;;;9.73;;
40595;SDS011;26304;48.794;9.820;2022-09-01T07:35:51;12.23;;;8.20;;
40595;SDS011;26304;48.794;9.820;2022-09-01T07:41:37;8.57;;;7.68;;
40595;SDS011;26304;48.794;9.820;2022-09-01T07:47:21;8.32;;;6.63;;
40595;SDS011;26304;48.794;9.820;2022-09-01T07:53:03;8.13;;;7.53;;
40595;SDS011;26304;48.794;9.820;2022-09-01T07:58:46;6.03;;;5.53;;
40595;SDS011;26304;48.794;9.820;2022-09-01T08:04:31;6.45;;;5.95;;
40595;SDS011;26304;48.794;9.820;2022-09-01T08:10:14;6.57;;;6.00;;
40595;SDS011;26304;48.794;9.820;2022-09-01T08:15:57;5.95;;;5.55;;
40595;SDS011;26304;48.794;9.820;2022-09-01T08:21:41;6.00;;;5.53;;
40595;SDS011;26304;48.794;9.820;2022-09-01T08:27:23;6.28;;;5.88;;
40595;SDS011;26304;48.794;9.820;2022-09-01T08:33:06;6.72;;;6.13;;
40595;SDS011;26304;48.794;9.820;2022-09-01T08:38:51;6.32;;;5.82;;
40595;SDS011;26304;48.794;9.820;2022-09-01T08:44:36;5.97;;;5.50;;
40595;SDS011;26304;48.794;9.820;2022-09-01T08:50:25;7.75;;;7.13;;
40595;SDS011;26304;48.794;9.820;2022-09-01T08:56:09;7.03;;;6.43;;
40595;SDS011;26304;48.794;9.820;2022-09-01T09:01:56;7.20;;;6.60;;
40595;SDS011;26304;48.794;9.820;2022-09-01T09:07:53;6.63;;;6.13;;
40595;SDS011;26304;48.794;9.820;2022-09-01T09:13:50;6.97;;;6.38;;
40595;SDS011;26304;48.794;9.820;2022-09-01T09:19:42;6.00;;;5.60;;
40595;SDS011;26304;48.794;9.820;2022-09-01T09:25:26;6.03;;;5.70;;
40595;SDS011;26304;48.794;9.820;2022-09-01T09:31:28;6.45;;;6.00;;
40595;SDS011;26304;48.794;9.820;2022-09-01T09:37:18;6.60;;;6.00;;
40595;SDS011;26304;48.794;9.820;2022-09-01T09:43:04;7.03;;;6.32;;
40595;SDS011;26304;48.794;9.820;2022-09-01T09:48:51;6.30;;;5.80;;
40595;SDS011;26304;48.794;9.820;2022-09-01T09:54:59;6.45;;;5.95;;
40595;SDS011;26304;48.794;9.820;2022-09-01T10:00:56;5.80;;;5.40;;
40595;SDS011;26304;48.794;9.820;2022-09-01T10:06:44;5.80;;;5.40;;
40595;SDS011;26304;48.794;9.820;2022-09-01T10:12:27;5.90;;;5.50;;
40595;SDS011;26304;48.794;9.820;2022-09-01T10:18:12;5.90;;;5.55;;
40595;SDS011;26304;48.794;9.820;2022-09-01T10:24:08;5.38;;;5.05;;
40595;SDS011;26304;48.794;9.820;2022-09-01T10:30:00;7.60;;;6.80;;
40595;SDS011;26304;48.794;9.820;2022-09-01T10:35:47;7.72;;;6.10;;
40595;SDS011;26304;48.794;9.820;2022-09-01T10:41:49;5.65;;;5.25;;
40595;SDS011;26304;48.794;9.820;2022-09-01T10:47:36;6.18;;;5.60;;
40595;SDS011;26304;48.794;9.820;2022-09-01T10:53:38;5.10;;;4.80;;
40595;SDS011;26304;48.794;9.820;2022-09-01T10:59:24;6.10;;;5.70;;
40595;SDS011;26304;48.794;9.820;2022-09-01T11:05:13;6.07;;;5.68;;
40595;SDS011;26304;48.794;9.820;2022-09-01T11:10:58;5.60;;;5.22;;
40595;SDS011;26304;48.794;9.820;2022-09-01T11:22:58;5.53;;;5.03;;
40595;SDS011;26304;48.794;9.820;2022-09-01T11:28:43;5.10;;;4.80;;
40595;SDS011;26304;48.794;9.820;2022-09-01T11:34:27;5.82;;;5.43;;
40595;SDS011;26304;48.794;9.820;2022-09-01T11:40:11;5.80;;;5.40;;
40595;SDS011;26304;48.794;9.820;2022-09-01T11:46:02;5.10;;;4.70;;
40595;SDS011;26304;48.794;9.820;2022-09-01T11:51:56;4.45;;;4.18;;
40595;SDS011;26304;48.794;9.820;2022-09-01T11:57:40;4.90;;;4.50;;
40595;SDS011;26304;48.794;9.820;2022-09-01T12:03:23;4.43;;;4.13;;
40595;SDS011;26304;48.794;9.820;2022-09-01T12:09:09;4.32;;;4.03;;
40595;SDS011;26304;48.794;9.820;2022-09-01T12:14:55;4.50;;;4.20;;
40595;SDS011;26304;48.794;9.820;2022-09-01T12:20:38;4.78;;;4.47;;
40595;SDS011;26304;48.794;9.820;2022-09-01T12:26:24;5.75;;;5.35;;
40595;SDS011;26304;48.794;9.820;2022-09-01T12:32:08;6.25;;;5.75;;
40595;SDS011;26304;48.794;9.820;2022-09-01T12:37:51;7.00;;;6.50;;
40595;SDS011;26304;48.794;9.820;2022-09-01T12:43:55;7.28;;;6.72;;
40595;SDS011;26304;48.794;9.820;2022-09-01T12:49:39;6.72;;;6.13;;
40595;SDS011;26304;48.794;9.820;2022-09-01T12:55:23;7.47;;;6.88;;
40595;SDS011;26304;48.794;9.820;2022-09-01T13:01:09;9.73;;;8.82;;
40595;SDS011;26304;48.794;9.820;2022-09-01T13:07:06;8.63;;;7.93;;
40595;SDS011;26304;48.794;9.820;2022-09-01T13:12:49;10.07;;;9.23;;
40595;SDS011;26304;48.794;9.820;2022-09-01T13:18:34;8.23;;;7.53;;
40595;SDS011;26304;48.794;9.820;2022-09-01T13:24:16;7.40;;;6.78;;
40595;SDS011;26304;48.794;9.820;2022-09-01T13:29:58;6.72;;;6.25;;
40595;SDS011;26304;48.794;9.820;2022-09-01T13:35:42;8.30;;;7.50;;
40595;SDS011;26304;48.794;9.820;2022-09-01T13:41:24;10.70;;;9.70;;
40595;SDS011;26304;48.794;9.820;2022-09-01T13:47:07;10.10;;;9.20;;
40595;SDS011;26304;48.794;9.820;2022-09-01T13:52:53;8.38;;;7.68;;
40595;SDS011;26304;48.794;9.820;2022-09-01T13:58:37;9.00;;;8.20;;
40595;SDS011;26304;48.794;9.820;2022-09-01T14:04:20;7.80;;;7.10;;
40595;SDS011;26304;48.794;9.820;2022-09-01T14:10:05;8.45;;;7.57;;
40595;SDS011;26304;48.794;9.820;2022-09-01T14:15:48;8.23;;;7.53;;
40595;SDS011;26304;48.794;9.820;2022-09-01T14:21:31;7.47;;;6.88;;
40595;SDS011;26304;48.794;9.820;2022-09-01T14:27:15;6.97;;;6.47;;
40595;SDS011;26304;48.794;9.820;2022-09-01T14:32:58;6.68;;;6.13;;
40595;SDS011;26304;48.794;9.820;2022-09-01T14:38:41;6.88;;;6.43;;
40595;SDS011;26304;48.794;9.820;2022-09-01T14:44:25;6.45;;;5.95;;
40595;SDS011;26304;48.794;9.820;2022-09-01T14:50:07;7.32;;;6.05;;
40595;SDS011;26304;48.794;9.820;2022-09-01T14:55:50;6.03;;;5.45;;
40595;SDS011;26304;48.794;9.820;2022-09-01T15:01:34;6.72;;;6.22;;
40595;SDS011;26304;48.794;9.820;2022-09-01T15:07:16;7.93;;;6.90;;
40595;SDS011;26304;48.794;9.820;2022-09-01T15:12:59;10.20;;;6.70;;
40595;SDS011;26304;48.794;9.820;2022-09-01T15:18:44;32.58;;;11.07;;
40595;SDS011;26304;48.794;9.820;2022-09-01T15:24:26;30.88;;;10.00;;
40595;SDS011;26304;48.794;9.820;2022-09-01T15:30:09;22.73;;;8.07;;
40595;SDS011;26304;48.794;9.820;2022-09-01T15:35:56;9.52;;;7.00;;
40595;SDS011;26304;48.794;9.820;2022-09-01T15:41:39;7.07;;;5.78;;
40595;SDS011;26304;48.794;9.820;2022-09-01T15:47:21;5.75;;;5.20;;
40595;SDS011;26304;48.794;9.820;2022-09-01T15:53:06;8.75;;;5.85;;
40595;SDS011;26304;48.794;9.820;2022-09-01T15:58:51;9.15;;;4.88;;
40595;SDS011;26304;48.794;9.820;2022-09-01T16:04:35;4.93;;;4.47;;
40595;SDS011;26304;48.794;9.820;2022-09-01T16:10:19;4.50;;;4.10;;
40595;SDS011;26304;48.794;9.820;2022-09-01T16:16:04;3.85;;;3.60;;
40595;SDS011;26304;48.794;9.820;2022-09-01T16:21:57;3.97;;;3.70;;
40595;SDS011;26304;48.794;9.820;2022-09-01T16:27:47;4.05;;;3.75;;
40595;SDS011;26304;48.794;9.820;2022-09-01T16:33:31;6.25;;;4.05;;
40595;SDS011;26304;48.794;9.820;2022-09-01T16:39:14;4.00;;;3.60;;
40595;SDS011;26304;48.794;9.820;2022-09-01T16:45:04;3.95;;;3.72;;
40595;SDS011;26304;48.794;9.820;2022-09-01T16:50:56;3.38;;;3.13;;
40595;SDS011;26304;48.794;9.820;2022-09-01T16:56:48;3.58;;;3.28;;
40595;SDS011;26304;48.794;9.820;2022-09-01T17:02:39;3.38;;;3.17;;
40595;SDS011;26304;48.794;9.820;2022-09-01T17:08:30;3.20;;;3.00;;
40595;SDS011;26304;48.794;9.820;2022-09-01T17:14:15;3.28;;;3.08;;
40595;SDS011;26304;48.794;9.820;2022-09-01T17:20:07;3.42;;;3.20;;
40595;SDS011;26304;48.794;9.820;2022-09-01T17:25:50;2.95;;;2.75;;
40595;SDS011;26304;48.794;9.820;2022-09-01T17:31:41;3.08;;;2.88;;
40595;SDS011;26304;48.794;9.820;2022-09-01T17:37:38;2.95;;;2.75;;
40595;SDS011;26304;48.794;9.820;2022-09-01T17:43:38;3.28;;;2.90;;
40595;SDS011;26304;48.794;9.820;2022-09-01T17:49:31;2.95;;;2.75;;
40595;SDS011;26304;48.794;9.820;2022-09-01T17:55:22;2.90;;;2.70;;
40595;SDS011;26304;48.794;9.820;2022-09-01T18:01:21;3.13;;;2.93;;
40595;SDS011;26304;48.794;9.820;2022-09-01T18:07:12;2.85;;;2.65;;
40595;SDS011;26304;48.794;9.820;2022-09-01T18:13:09;3.78;;;2.60;;
40595;SDS011;26304;48.794;9.820;2022-09-01T18:19:01;2.78;;;2.58;;
40595;SDS011;26304;48.794;9.820;2022-09-01T18:24:51;3.65;;;3.13;;
40595;SDS011;26304;48.794;9.820;2022-09-01T18:30:41;2.80;;;2.63;;
40595;SDS011;26304;48.794;9.820;2022-09-01T18:36:31;2.90;;;2.70;;
40595;SDS011;26304;48.794;9.820;2022-09-01T18:42:19;5.15;;;3.00;;
40595;SDS011;26304;48.794;9.820;2022-09-01T18:48:15;3.00;;;2.75;;
40595;SDS011;26304;48.794;9.820;2022-09-01T18:54:11;2.88;;;2.67;;
40595;SDS011;26304;48.794;9.820;2022-09-01T19:00:00;3.60;;;2.90;;
40595;SDS011;26304;48.794;9.820;2022-09-01T19:05:56;2.80;;;2.60;;
40595;SDS011;26304;48.794;9.820;2022-09-01T19:11:56;3.58;;;3.28;;
40595;SDS011;26304;48.794;9.820;2022-09-01T19:17:57;4.50;;;3.30;;
40595;SDS011;26304;48.794;9.820;2022-09-01T19:23:56;3.22;;;2.92;;
40595;SDS011;26304;48.794;9.820;2022-09-01T19:29:44;4.05;;;3.75;;
40595;SDS011;26304;48.794;9.820;2022-09-01T19:35:33;4.22;;;3.88;;
40595;SDS011;26304;48.794;9.820;2022-09-01T19:41:19;3.83;;;3.63;;
40595;SDS011;26304;48.794;9.820;2022-09-01T19:47:07;3.75;;;3.55;;
40595;SDS011;26304;48.794;9.820;2022-09-01T19:52:54;4.03;;;3.47;;
40595;SDS011;26304;48.794;9.820;2022-09-01T19:58:46;4.38;;;4.07;;
40595;SDS011;26304;48.794;9.820;2022-09-01T20:04:36;4.55;;;4.15;;
40595;SDS011;26304;48.794;9.820;2022-09-01T20:10:26;4.03;;;3.72;;
40595;SDS011;26304;48.794;9.820;2022-09-01T20:16:25;4.18;;;3.97;;
40595;SDS011;26304;48.794;9.820;2022-09-01T20:22:18;4.38;;;4.07;;
40595;SDS011;26304;48.794;9.820;2022-09-01T20:28:06;4.53;;;4.22;;
40595;SDS011;26304;48.794;9.820;2022-09-01T20:34:00;4.93;;;4.53;;
40595;SDS011;26304;48.794;9.820;2022-09-01T20:39:50;4.55;;;4.20;;
40595;SDS011;26304;48.794;9.820;2022-09-01T20:45:41;5.47;;;5.07;;
40595;SDS011;26304;48.794;9.820;2022-09-01T20:51:30;5.22;;;4.82;;
40595;SDS011;26304;48.794;9.820;2022-09-01T20:57:21;5.00;;;4.60;;
40595;SDS011;26304;48.794;9.820;2022-09-01T21:03:14;4.93;;;4.60;;
40595;SDS011;26304;48.794;9.820;2022-09-01T21:09:06;4.97;;;4.50;;
40595;SDS011;26304;48.794;9.820;2022-09-01T21:14:55;4.80;;;4.47;;
40595;SDS011;26304;48.794;9.820;2022-09-01T21:20:48;7.50;;;6.90;;
40595;SDS011;26304;48.794;9.820;2022-09-01T21:26:39;6.10;;;5.70;;
40595;SDS011;26304;48.794;9.820;2022-09-01T21:32:22;4.53;;;4.22;;
40595;SDS011;26304;48.794;9.820;2022-09-01T21:38:05;4.50;;;4.10;;
40595;SDS011;26304;48.794;9.820;2022-09-01T21:43:48;4.10;;;3.80;;
40595;SDS011;26304;48.794;9.820;2022-09-01T21:49:31;4.30;;;3.95;;
40595;SDS011;26304;48.794;9.820;2022-09-01T21:55:14;3.67;;;3.40;;
40595;SDS011;26304;48.794;9.820;2022-09-01T22:00:58;4.30;;;3.92;;
40595;SDS011;26304;48.794;9.820;2022-09-01T22:06:42;3.90;;;3.47;;
40595;SDS011;26304;48.794;9.820;2022-09-01T22:12:25;3.55;;;3.25;;
40595;SDS011;26304;48.794;9.820;2022-09-01T22:18:09;3.85;;;3.55;;
40595;SDS011;26304;48.794;9.820;2022-09-01T22:23:52;3.28;;;3.08;;
40595;SDS011;26304;48.794;9.820;2022-09-01T22:29:35;4.00;;;3.70;;
40595;SDS011;26304;48.794;9.820;2022-09-01T22:35:19;3.72;;;3.42;;
40595;SDS011;26304;48.794;9.820;2022-09-01T22:41:01;3.47;;;2.85;;
40595;SDS011;26304;48.794;9.820;2022-09-01T22:46:44;3.15;;;2.85;;
40595;SDS011;26304;48.794;9.820;2022-09-01T22:52:28;3.20;;;2.88;;
40595;SDS011;26304;48.794;9.820;2022-09-01T22:58:10;3.17;;;2.97;;
40595;SDS011;26304;48.794;9.820;2022-09-01T23:03:54;3.33;;;3.13;;
40595;SDS011;26304;48.794;9.820;2022-09-01T23:09:40;3.53;;;3.13;;
40595;SDS011;26304;48.794;9.820;2022-09-01T23:15:23;3.10;;;2.90;;
40595;SDS011;26304;48.794;9.820;2022-09-01T23:21:06;4.25;;;3.30;;
40595;SDS011;26304;48.794;9.820;2022-09-01T23:26:50;3.72;;;3.42;;
40595;SDS011;26304;48.794;9.820;2022-09-01T23:32:33;3.28;;;3.00;;
40595;SDS011;26304;48.794;9.820;2022-09-01T23:38:16;3.53;;;3.22;;
40595;SDS011;26304;48.794;9.820;2022-09-01T23:44:02;3.38;;;3.17;;
40595;SDS011;26304;48.794;9.820;2022-09-01T23:49:50;3.63;;;3.20;;
40595;SDS011;26304;48.794;9.820;2022-09-01T23:55:32;3.53;;;3.15;;
